sensor_id;sensor_type;location;lat;lon;timestamp;pressure;altitude;pressure_sealevel;temperature;humidity
37848;BME280;23688;33.130;-117.188;2023-05-15T00:00:44;99383.75;;;16.61;100.00
37848;BME280;23688;33.130;-117.188;2023-05-15T00:03:10;99386.44;;;16.67;100.00
37848;BME280;23688;33.130;-117.188;2023-05-15T00:05:37;99378.34;;;16.53;100.00
37848;BME280;23688;33.130;-117.188;2023-05-15T00:08:03;99379.56;;;16.75;100.00
37848;BME280;23688;33.130;-117.188;2023-05-15T00:10:30;99383.91;;;16.73;100.00
37848;BME280;23688;33.130;-117.188;2023-05-15T00:12:56;99373.38;;;16.70;100.00
37848;BME280;23688;33.130;-117.188;2023-05-15T00:15:22;99391.59;;;16.61;100.00
37848;BME280;23688;33.130;-117.188;2023-05-15T00:17:49;99390.84;;;16.68;100.00
37848;BME280;23688;33.130;-117.188;2023-05-15T00:20:15;99383.59;;;16.52;100.00
37848;BME280;23688;33.130;-117.188;2023-05-15T00:22:41;99382.53;;;16.39;100.00
37848;BME280;23688;33.130;-117.188;2023-05-15T00:25:08;99387.13;;;16.54;100.00
37848;BME280;23688;33.130;-117.188;2023-05-15T00:27:35;99381.97;;;16.58;100.00
37848;BME280;23688;33.130;-117.188;2023-05-15T00:30:01;99381.63;;;16.38;100.00
37848;BME280;23688;33.130;-117.188;2023-05-15T00:32:27;99380.94;;;16.50;100.00
37848;BME280;23688;33.130;-117.188;2023-05-15T00:34:54;99390.78;;;16.65;100.00
37848;BME280;23688;33.130;-117.188;2023-05-15T00:37:20;99399.72;;;16.78;100.00
37848;BME280;23688;33.130;-117.188;2023-05-15T00:39:46;99397.09;;;16.78;100.00
37848;BME280;23688;33.130;-117.188;2023-05-15T00:42:14;99410.63;;;16.51;100.00
37848;BME280;23688;33.130;-117.188;2023-05-15T00:44:43;99408.88;;;16.50;100.00
37848;BME280;23688;33.130;-117.188;2023-05-15T00:47:11;99388.22;;;16.69;100.00
37848;BME280;23688;33.130;-117.188;2023-05-15T00:49:37;99407.34;;;16.62;100.00
37848;BME280;23688;33.130;-117.188;2023-05-15T00:52:04;99407.91;;;16.43;100.00
37848;BME280;23688;33.130;-117.188;2023-05-15T00:54:33;99402.78;;;16.49;100.00
37848;BME280;23688;33.130;-117.188;2023-05-15T00:57:00;99400.78;;;16.34;100.00
37848;BME280;23688;33.130;-117.188;2023-05-15T00:59:30;99396.00;;;16.12;100.00
37848;BME280;23688;33.130;-117.188;2023-05-15T01:01:57;99402.81;;;16.00;100.00
37848;BME280;23688;33.130;-117.188;2023-05-15T01:04:24;99404.44;;;15.94;100.00
37848;BME280;23688;33.130;-117.188;2023-05-15T01:06:50;99402.69;;;15.93;100.00
37848;BME280;23688;33.130;-117.188;2023-05-15T01:09:19;99413.06;;;15.90;100.00
37848;BME280;23688;33.130;-117.188;2023-05-15T01:11:46;99397.41;;;15.91;100.00
37848;BME280;23688;33.130;-117.188;2023-05-15T01:14:15;99394.22;;;16.09;100.00
37848;BME280;23688;33.130;-117.188;2023-05-15T01:16:41;99395.75;;;15.96;100.00
37848;BME280;23688;33.130;-117.188;2023-05-15T01:19:08;99410.41;;;15.85;100.00
37848;BME280;23688;33.130;-117.188;2023-05-15T01:35:15;99395.88;;;16.02;100.00
37848;BME280;23688;33.130;-117.188;2023-05-15T01:37:47;99429.66;;;15.89;100.00
37848;BME280;23688;33.130;-117.188;2023-05-15T01:40:17;99416.47;;;15.84;100.00
37848;BME280;23688;33.130;-117.188;2023-05-15T01:42:52;99420.19;;;15.95;100.00
37848;BME280;23688;33.130;-117.188;2023-05-15T01:45:21;99414.88;;;15.92;100.00
37848;BME280;23688;33.130;-117.188;2023-05-15T01:47:49;99414.00;;;15.92;100.00
37848;BME280;23688;33.130;-117.188;2023-05-15T01:50:16;99423.22;;;15.71;100.00
37848;BME280;23688;33.130;-117.188;2023-05-15T01:52:46;99418.78;;;15.69;100.00
37848;BME280;23688;33.130;-117.188;2023-05-15T01:55:14;99422.25;;;15.69;100.00
37848;BME280;23688;33.130;-117.188;2023-05-15T01:57:41;99420.66;;;15.74;100.00
37848;BME280;23688;33.130;-117.188;2023-05-15T02:00:09;99421.44;;;15.70;100.00
37848;BME280;23688;33.130;-117.188;2023-05-15T02:02:36;99424.59;;;15.55;100.00
37848;BME280;23688;33.130;-117.188;2023-05-15T02:05:03;99437.22;;;15.73;100.00
37848;BME280;23688;33.130;-117.188;2023-05-15T02:07:31;99437.50;;;15.89;100.00
37848;BME280;23688;33.130;-117.188;2023-05-15T02:09:58;99437.78;;;16.02;100.00
37848;BME280;23688;33.130;-117.188;2023-05-15T02:12:26;99440.91;;;15.84;100.00
37848;BME280;23688;33.130;-117.188;2023-05-15T02:14:54;99427.31;;;15.60;100.00
37848;BME280;23688;33.130;-117.188;2023-05-15T02:17:21;99446.25;;;15.48;100.00
37848;BME280;23688;33.130;-117.188;2023-05-15T02:19:49;99441.69;;;15.38;100.00
37848;BME280;23688;33.130;-117.188;2023-05-15T02:22:15;99447.78;;;15.37;100.00
37848;BME280;23688;33.130;-117.188;2023-05-15T02:24:42;99447.75;;;15.35;100.00
37848;BME280;23688;33.130;-117.188;2023-05-15T02:30:10;99464.41;;;15.40;100.00
37848;BME280;23688;33.130;-117.188;2023-05-15T02:37:49;99471.84;;;15.61;100.00
37848;BME280;23688;33.130;-117.188;2023-05-15T02:40:22;99465.63;;;15.56;100.00
37848;BME280;23688;33.130;-117.188;2023-05-15T02:42:51;99455.16;;;15.56;100.00
37848;BME280;23688;33.130;-117.188;2023-05-15T02:45:19;99454.66;;;15.32;100.00
37848;BME280;23688;33.130;-117.188;2023-05-15T02:47:45;99476.53;;;15.76;100.00
37848;BME280;23688;33.130;-117.188;2023-05-15T02:50:15;99470.47;;;15.79;100.00
37848;BME280;23688;33.130;-117.188;2023-05-15T02:52:41;99477.75;;;15.51;100.00
37848;BME280;23688;33.130;-117.188;2023-05-15T02:55:08;99478.00;;;15.65;100.00
37848;BME280;23688;33.130;-117.188;2023-05-15T02:57:35;99490.50;;;15.75;100.00
37848;BME280;23688;33.130;-117.188;2023-05-15T03:00:03;99485.72;;;15.57;100.00
37848;BME280;23688;33.130;-117.188;2023-05-15T03:02:35;99500.63;;;15.61;100.00
37848;BME280;23688;33.130;-117.188;2023-05-15T03:05:01;99486.91;;;15.72;100.00
37848;BME280;23688;33.130;-117.188;2023-05-15T03:07:28;99482.53;;;15.71;100.00
37848;BME280;23688;33.130;-117.188;2023-05-15T03:10:02;99489.41;;;15.67;100.00
37848;BME280;23688;33.130;-117.188;2023-05-15T03:12:29;99489.63;;;15.76;100.00
37848;BME280;23688;33.130;-117.188;2023-05-15T03:14:55;99505.03;;;15.64;100.00
37848;BME280;23688;33.130;-117.188;2023-05-15T03:17:21;99494.72;;;15.70;100.00
37848;BME280;23688;33.130;-117.188;2023-05-15T03:19:48;99507.47;;;15.96;100.00
37848;BME280;23688;33.130;-117.188;2023-05-15T03:22:14;99516.44;;;16.07;100.00
37848;BME280;23688;33.130;-117.188;2023-05-15T03:24:41;99515.53;;;16.07;100.00
37848;BME280;23688;33.130;-117.188;2023-05-15T03:27:07;99518.97;;;16.02;100.00
37848;BME280;23688;33.130;-117.188;2023-05-15T03:29:34;99520.50;;;15.93;100.00
37848;BME280;23688;33.130;-117.188;2023-05-15T03:32:00;99517.75;;;15.85;100.00
37848;BME280;23688;33.130;-117.188;2023-05-15T03:34:26;99517.50;;;15.73;100.00
37848;BME280;23688;33.130;-117.188;2023-05-15T03:36:53;99514.50;;;15.57;100.00
37848;BME280;23688;33.130;-117.188;2023-05-15T03:39:20;99512.69;;;15.55;100.00
37848;BME280;23688;33.130;-117.188;2023-05-15T03:41:46;99497.97;;;15.58;100.00
37848;BME280;23688;33.130;-117.188;2023-05-15T03:44:12;99522.38;;;15.59;100.00
37848;BME280;23688;33.130;-117.188;2023-05-15T03:46:41;99523.31;;;15.62;100.00
37848;BME280;23688;33.130;-117.188;2023-05-15T03:49:08;99531.63;;;15.82;100.00
37848;BME280;23688;33.130;-117.188;2023-05-15T03:51:34;99535.28;;;15.91;100.00
37848;BME280;23688;33.130;-117.188;2023-05-15T03:54:00;99528.84;;;15.73;100.00
37848;BME280;23688;33.130;-117.188;2023-05-15T03:56:30;99531.66;;;15.84;100.00
37848;BME280;23688;33.130;-117.188;2023-05-15T03:58:57;99528.13;;;15.80;100.00
37848;BME280;23688;33.130;-117.188;2023-05-15T04:01:24;99517.53;;;15.76;100.00
37848;BME280;23688;33.130;-117.188;2023-05-15T04:03:50;99549.88;;;15.78;100.00
37848;BME280;23688;33.130;-117.188;2023-05-15T04:06:16;99547.84;;;15.68;100.00
37848;BME280;23688;33.130;-117.188;2023-05-15T04:08:43;99544.97;;;15.54;100.00
37848;BME280;23688;33.130;-117.188;2023-05-15T04:11:10;99554.81;;;15.67;100.00
37848;BME280;23688;33.130;-117.188;2023-05-15T04:13:37;99559.63;;;15.47;100.00
37848;BME280;23688;33.130;-117.188;2023-05-15T04:16:03;99547.47;;;15.49;100.00
37848;BME280;23688;33.130;-117.188;2023-05-15T04:18:31;99550.25;;;15.57;100.00
37848;BME280;23688;33.130;-117.188;2023-05-15T04:20:57;99555.53;;;15.58;100.00
37848;BME280;23688;33.130;-117.188;2023-05-15T04:23:24;99568.63;;;15.58;100.00
37848;BME280;23688;33.130;-117.188;2023-05-15T04:25:51;99563.53;;;15.66;100.00
37848;BME280;23688;33.130;-117.188;2023-05-15T04:28:18;99560.56;;;15.51;100.00
37848;BME280;23688;33.130;-117.188;2023-05-15T04:30:46;99562.19;;;15.46;100.00
37848;BME280;23688;33.130;-117.188;2023-05-15T04:33:16;99560.88;;;15.65;100.00
37848;BME280;23688;33.130;-117.188;2023-05-15T04:35:42;99563.75;;;15.74;100.00
37848;BME280;23688;33.130;-117.188;2023-05-15T04:38:08;99570.88;;;15.81;100.00
37848;BME280;23688;33.130;-117.188;2023-05-15T04:40:34;99563.75;;;15.74;100.00
37848;BME280;23688;33.130;-117.188;2023-05-15T04:43:01;99568.16;;;15.76;100.00
37848;BME280;23688;33.130;-117.188;2023-05-15T04:45:28;99578.09;;;15.53;100.00
37848;BME280;23688;33.130;-117.188;2023-05-15T04:47:55;99572.94;;;15.58;100.00
37848;BME280;23688;33.130;-117.188;2023-05-15T04:50:21;99592.22;;;15.61;100.00
37848;BME280;23688;33.130;-117.188;2023-05-15T04:52:47;99585.31;;;15.65;100.00
37848;BME280;23688;33.130;-117.188;2023-05-15T04:55:15;99579.25;;;15.68;100.00
37848;BME280;23688;33.130;-117.188;2023-05-15T04:57:42;99603.63;;;15.63;100.00
37848;BME280;23688;33.130;-117.188;2023-05-15T05:00:08;99605.03;;;15.49;100.00
37848;BME280;23688;33.130;-117.188;2023-05-15T05:02:37;99606.78;;;15.50;100.00
37848;BME280;23688;33.130;-117.188;2023-05-15T05:05:04;99595.72;;;15.62;100.00
37848;BME280;23688;33.130;-117.188;2023-05-15T05:07:32;99601.41;;;15.80;100.00
37848;BME280;23688;33.130;-117.188;2023-05-15T05:09:58;99607.97;;;15.63;100.00
37848;BME280;23688;33.130;-117.188;2023-05-15T05:12:25;99612.41;;;15.29;100.00
37848;BME280;23688;33.130;-117.188;2023-05-15T05:14:51;99608.41;;;15.09;100.00
37848;BME280;23688;33.130;-117.188;2023-05-15T05:17:19;99616.19;;;15.06;100.00
37848;BME280;23688;33.130;-117.188;2023-05-15T05:19:45;99615.81;;;14.92;100.00
37848;BME280;23688;33.130;-117.188;2023-05-15T05:22:29;99609.09;;;15.02;100.00
37848;BME280;23688;33.130;-117.188;2023-05-15T05:25:16;99620.28;;;14.96;100.00
37848;BME280;23688;33.130;-117.188;2023-05-15T05:27:43;99610.63;;;15.27;100.00
37848;BME280;23688;33.130;-117.188;2023-05-15T05:30:10;99613.75;;;15.50;100.00
37848;BME280;23688;33.130;-117.188;2023-05-15T05:32:37;99620.19;;;15.64;100.00
37848;BME280;23688;33.130;-117.188;2023-05-15T05:35:03;99623.09;;;15.75;100.00
37848;BME280;23688;33.130;-117.188;2023-05-15T05:37:30;99628.53;;;15.84;100.00
37848;BME280;23688;33.130;-117.188;2023-05-15T05:39:56;99617.75;;;15.70;100.00
37848;BME280;23688;33.130;-117.188;2023-05-15T05:42:23;99630.13;;;15.77;100.00
37848;BME280;23688;33.130;-117.188;2023-05-15T05:44:49;99633.28;;;15.64;100.00
37848;BME280;23688;33.130;-117.188;2023-05-15T05:47:16;99620.13;;;15.61;100.00
37848;BME280;23688;33.130;-117.188;2023-05-15T05:49:42;99632.72;;;15.77;100.00
37848;BME280;23688;33.130;-117.188;2023-05-15T05:52:11;99642.22;;;15.72;100.00
37848;BME280;23688;33.130;-117.188;2023-05-15T05:54:38;99635.19;;;15.70;100.00
37848;BME280;23688;33.130;-117.188;2023-05-15T05:57:04;99652.81;;;15.77;100.00
37848;BME280;23688;33.130;-117.188;2023-05-15T05:59:32;99651.66;;;15.67;100.00
37848;BME280;23688;33.130;-117.188;2023-05-15T06:01:58;99655.22;;;15.69;100.00
37848;BME280;23688;33.130;-117.188;2023-05-15T06:04:25;99646.41;;;15.66;100.00
37848;BME280;23688;33.130;-117.188;2023-05-15T06:06:51;99644.13;;;15.78;100.00
37848;BME280;23688;33.130;-117.188;2023-05-15T06:09:18;99646.03;;;15.87;100.00
37848;BME280;23688;33.130;-117.188;2023-05-15T06:11:44;99650.59;;;15.95;100.00
37848;BME280;23688;33.130;-117.188;2023-05-15T06:14:11;99652.34;;;15.95;100.00
37848;BME280;23688;33.130;-117.188;2023-05-15T06:16:37;99648.88;;;15.96;100.00
37848;BME280;23688;33.130;-117.188;2023-05-15T06:19:03;99641.06;;;15.99;100.00
37848;BME280;23688;33.130;-117.188;2023-05-15T06:21:30;99633.25;;;16.00;100.00
37848;BME280;23688;33.130;-117.188;2023-05-15T06:23:56;99643.94;;;16.10;100.00
37848;BME280;23688;33.130;-117.188;2023-05-15T06:26:22;99643.13;;;16.14;100.00
37848;BME280;23688;33.130;-117.188;2023-05-15T06:28:50;99636.97;;;16.12;100.00
37848;BME280;23688;33.130;-117.188;2023-05-15T06:31:16;99644.03;;;16.14;100.00
37848;BME280;23688;33.130;-117.188;2023-05-15T06:33:42;99646.47;;;16.07;100.00
37848;BME280;23688;33.130;-117.188;2023-05-15T06:36:09;99651.75;;;16.08;100.00
37848;BME280;23688;33.130;-117.188;2023-05-15T06:38:35;99657.88;;;16.09;100.00
37848;BME280;23688;33.130;-117.188;2023-05-15T06:41:02;99646.47;;;16.07;100.00
37848;BME280;23688;33.130;-117.188;2023-05-15T06:43:28;99660.53;;;16.10;100.00
37848;BME280;23688;33.130;-117.188;2023-05-15T06:45:54;99647.38;;;16.09;100.00
37848;BME280;23688;33.130;-117.188;2023-05-15T06:48:20;99657.06;;;16.11;100.00
37848;BME280;23688;33.130;-117.188;2023-05-15T06:50:47;99637.72;;;16.06;100.00
37848;BME280;23688;33.130;-117.188;2023-05-15T06:53:13;99645.78;;;16.15;100.00
37848;BME280;23688;33.130;-117.188;2023-05-15T06:55:39;99657.22;;;16.19;100.00
37848;BME280;23688;33.130;-117.188;2023-05-15T06:58:05;99649.44;;;16.23;100.00
37848;BME280;23688;33.130;-117.188;2023-05-15T07:00:32;99651.25;;;16.26;100.00
37848;BME280;23688;33.130;-117.188;2023-05-15T07:02:58;99646.09;;;16.29;100.00
37848;BME280;23688;33.130;-117.188;2023-05-15T07:05:24;99636.50;;;16.31;100.00
37848;BME280;23688;33.130;-117.188;2023-05-15T07:07:51;99644.50;;;16.37;100.00
37848;BME280;23688;33.130;-117.188;2023-05-15T07:10:17;99653.41;;;16.45;100.00
37848;BME280;23688;33.130;-117.188;2023-05-15T07:12:43;99647.22;;;16.42;100.00
37848;BME280;23688;33.130;-117.188;2023-05-15T07:15:10;99651.75;;;16.49;100.00
37848;BME280;23688;33.130;-117.188;2023-05-15T07:17:37;99647.28;;;16.45;100.00
37848;BME280;23688;33.130;-117.188;2023-05-15T07:20:03;99641.53;;;16.20;100.00
37848;BME280;23688;33.130;-117.188;2023-05-15T07:22:30;99648.25;;;16.08;100.00
37848;BME280;23688;33.130;-117.188;2023-05-15T07:24:57;99656.88;;;16.03;100.00
37848;BME280;23688;33.130;-117.188;2023-05-15T07:27:23;99662.22;;;16.08;100.00
37848;BME280;23688;33.130;-117.188;2023-05-15T07:29:49;99660.53;;;16.12;100.00
37848;BME280;23688;33.130;-117.188;2023-05-15T07:32:16;99645.47;;;16.00;100.00
37848;BME280;23688;33.130;-117.188;2023-05-15T07:34:42;99638.81;;;16.14;100.00
37848;BME280;23688;33.130;-117.188;2023-05-15T07:37:09;99636.34;;;16.22;100.00
37848;BME280;23688;33.130;-117.188;2023-05-15T07:39:35;99646.66;;;16.16;100.00
37848;BME280;23688;33.130;-117.188;2023-05-15T07:42:01;99637.53;;;15.97;100.00
37848;BME280;23688;33.130;-117.188;2023-05-15T07:44:27;99630.66;;;16.02;100.00
37848;BME280;23688;33.130;-117.188;2023-05-15T07:46:54;99628.47;;;15.82;100.00
37848;BME280;23688;33.130;-117.188;2023-05-15T07:49:21;99633.94;;;15.92;100.00
37848;BME280;23688;33.130;-117.188;2023-05-15T07:51:47;99627.69;;;15.85;100.00
37848;BME280;23688;33.130;-117.188;2023-05-15T07:54:13;99623.53;;;15.57;100.00
37848;BME280;23688;33.130;-117.188;2023-05-15T07:56:40;99633.34;;;15.66;100.00
37848;BME280;23688;33.130;-117.188;2023-05-15T07:59:07;99630.22;;;15.46;100.00
37848;BME280;23688;33.130;-117.188;2023-05-15T08:01:34;99623.19;;;15.43;100.00
37848;BME280;23688;33.130;-117.188;2023-05-15T08:04:00;99628.91;;;15.27;100.00
37848;BME280;23688;33.130;-117.188;2023-05-15T08:06:27;99622.91;;;15.31;100.00
37848;BME280;23688;33.130;-117.188;2023-05-15T08:08:53;99618.63;;;15.34;100.00
37848;BME280;23688;33.130;-117.188;2023-05-15T08:11:19;99608.69;;;15.19;100.00
37848;BME280;23688;33.130;-117.188;2023-05-15T08:13:46;99620.03;;;15.20;100.00
37848;BME280;23688;33.130;-117.188;2023-05-15T08:16:12;99624.16;;;15.10;100.00
37848;BME280;23688;33.130;-117.188;2023-05-15T08:18:39;99610.09;;;15.07;100.00
37848;BME280;23688;33.130;-117.188;2023-05-15T08:21:05;99608.22;;;15.01;100.00
37848;BME280;23688;33.130;-117.188;2023-05-15T08:23:33;99609.44;;;15.15;100.00
37848;BME280;23688;33.130;-117.188;2023-05-15T08:26:00;99599.03;;;15.17;100.00
37848;BME280;23688;33.130;-117.188;2023-05-15T08:28:26;99611.97;;;15.47;100.00
37848;BME280;23688;33.130;-117.188;2023-05-15T08:30:52;99604.22;;;15.52;100.00
37848;BME280;23688;33.130;-117.188;2023-05-15T08:33:18;99611.47;;;15.63;100.00
37848;BME280;23688;33.130;-117.188;2023-05-15T08:35:45;99612.84;;;15.48;100.00
37848;BME280;23688;33.130;-117.188;2023-05-15T08:38:11;99598.81;;;15.46;100.00
37848;BME280;23688;33.130;-117.188;2023-05-15T08:40:39;99598.97;;;15.52;100.00
37848;BME280;23688;33.130;-117.188;2023-05-15T08:43:14;99611.00;;;15.44;100.00
37848;BME280;23688;33.130;-117.188;2023-05-15T08:45:42;99601.66;;;15.53;100.00
37848;BME280;23688;33.130;-117.188;2023-05-15T08:48:13;99588.41;;;15.47;100.00
37848;BME280;23688;33.130;-117.188;2023-05-15T08:50:41;99606.34;;;15.68;100.00
37848;BME280;23688;33.130;-117.188;2023-05-15T08:53:11;99602.97;;;15.72;100.00
37848;BME280;23688;33.130;-117.188;2023-05-15T08:55:38;99601.00;;;15.65;100.00
37848;BME280;23688;33.130;-117.188;2023-05-15T08:58:05;99601.94;;;15.66;100.00
37848;BME280;23688;33.130;-117.188;2023-05-15T09:00:32;99606.34;;;15.68;100.00
37848;BME280;23688;33.130;-117.188;2023-05-15T09:02:59;99598.44;;;15.67;100.00
37848;BME280;23688;33.130;-117.188;2023-05-15T09:05:28;99602.53;;;15.54;100.00
37848;BME280;23688;33.130;-117.188;2023-05-15T09:07:54;99592.75;;;15.47;100.00
37848;BME280;23688;33.130;-117.188;2023-05-15T09:10:22;99600.78;;;15.54;100.00
37848;BME280;23688;33.130;-117.188;2023-05-15T09:12:50;99604.16;;;15.49;100.00
37848;BME280;23688;33.130;-117.188;2023-05-15T09:15:18;99609.78;;;15.66;100.00
37848;BME280;23688;33.130;-117.188;2023-05-15T09:17:49;99600.13;;;15.63;100.00
37848;BME280;23688;33.130;-117.188;2023-05-15T09:22:55;99601.41;;;15.80;100.00
37848;BME280;23688;33.130;-117.188;2023-05-15T09:25:42;99583.03;;;15.79;100.00
37848;BME280;23688;33.130;-117.188;2023-05-15T09:28:26;99589.22;;;15.82;100.00
37848;BME280;23688;33.130;-117.188;2023-05-15T09:30:58;99576.69;;;15.69;100.00
37848;BME280;23688;33.130;-117.188;2023-05-15T09:35:55;99569.44;;;15.57;100.00
37848;BME280;23688;33.130;-117.188;2023-05-15T09:38:22;99576.41;;;15.57;100.00
37848;BME280;23688;33.130;-117.188;2023-05-15T09:40:48;99584.91;;;15.47;100.00
37848;BME280;23688;33.130;-117.188;2023-05-15T09:43:15;99577.53;;;15.30;100.00
37848;BME280;23688;33.130;-117.188;2023-05-15T09:45:41;99581.03;;;15.29;100.00
37848;BME280;23688;33.130;-117.188;2023-05-15T09:48:08;99566.56;;;15.07;100.00
37848;BME280;23688;33.130;-117.188;2023-05-15T09:50:37;99557.09;;;15.12;100.00
37848;BME280;23688;33.130;-117.188;2023-05-15T09:53:04;99566.44;;;15.03;100.00
37848;BME280;23688;33.130;-117.188;2023-05-15T09:55:34;99555.47;;;15.19;100.00
37848;BME280;23688;33.130;-117.188;2023-05-15T09:58:08;99572.66;;;15.46;100.00
37848;BME280;23688;33.130;-117.188;2023-05-15T10:00:37;99561.75;;;15.63;100.00
37848;BME280;23688;33.130;-117.188;2023-05-15T10:03:05;99556.00;;;15.78;100.00
37848;BME280;23688;33.130;-117.188;2023-05-15T10:05:31;99579.81;;;15.92;100.00
37848;BME280;23688;33.130;-117.188;2023-05-15T10:07:59;99579.91;;;15.95;100.00
37848;BME280;23688;33.130;-117.188;2023-05-15T10:10:27;99589.53;;;15.96;100.00
37848;BME280;23688;33.130;-117.188;2023-05-15T10:12:56;99586.88;;;15.95;100.00
37848;BME280;23688;33.130;-117.188;2023-05-15T10:15:24;99584.34;;;15.99;100.00
37848;BME280;23688;33.130;-117.188;2023-05-15T10:17:53;99585.88;;;15.90;100.00
37848;BME280;23688;33.130;-117.188;2023-05-15T10:20:22;99587.56;;;15.86;100.00
37848;BME280;23688;33.130;-117.188;2023-05-15T10:22:51;99598.44;;;15.67;100.00
37848;BME280;23688;33.130;-117.188;2023-05-15T10:27:45;99583.69;;;15.32;100.00
37848;BME280;23688;33.130;-117.188;2023-05-15T10:30:14;99598.13;;;15.53;100.00
37848;BME280;23688;33.130;-117.188;2023-05-15T10:32:43;99581.13;;;15.72;100.00
37848;BME280;23688;33.130;-117.188;2023-05-15T10:35:10;99583.88;;;15.76;100.00
37848;BME280;23688;33.130;-117.188;2023-05-15T10:37:38;99579.38;;;15.71;100.00
37848;BME280;23688;33.130;-117.188;2023-05-15T10:40:09;99580.16;;;15.68;100.00
37848;BME280;23688;33.130;-117.188;2023-05-15T10:42:36;99564.03;;;15.50;100.00
37848;BME280;23688;33.130;-117.188;2023-05-15T10:45:04;99569.69;;;15.68;100.00
37848;BME280;23688;33.130;-117.188;2023-05-15T10:47:36;99575.03;;;15.71;100.00
37848;BME280;23688;33.130;-117.188;2023-05-15T10:50:04;99580.31;;;15.73;100.00
37848;BME280;23688;33.130;-117.188;2023-05-15T10:52:35;99590.84;;;15.77;100.00
37848;BME280;23688;33.130;-117.188;2023-05-15T10:55:13;99582.44;;;15.91;100.00
37848;BME280;23688;33.130;-117.188;2023-05-15T10:57:41;99581.66;;;15.95;100.00
37848;BME280;23688;33.130;-117.188;2023-05-15T11:00:24;99587.59;;;15.88;100.00
37848;BME280;23688;33.130;-117.188;2023-05-15T11:02:52;99589.25;;;15.84;100.00
37848;BME280;23688;33.130;-117.188;2023-05-15T11:05:21;99587.97;;;15.67;100.00
37848;BME280;23688;33.130;-117.188;2023-05-15T11:10:47;99596.63;;;15.26;100.00
37848;BME280;23688;33.130;-117.188;2023-05-15T11:13:14;99600.22;;;15.31;100.00
37848;BME280;23688;33.130;-117.188;2023-05-15T11:15:44;99606.66;;;15.44;100.00
37848;BME280;23688;33.130;-117.188;2023-05-15T11:18:11;99599.09;;;15.58;100.00
37848;BME280;23688;33.130;-117.188;2023-05-15T11:21:27;99606.25;;;15.63;100.00
37848;BME280;23688;33.130;-117.188;2023-05-15T11:23:37;99601.88;;;15.64;100.00
37848;BME280;23688;33.130;-117.188;2023-05-15T11:26:04;99593.97;;;15.61;100.00
37848;BME280;23688;33.130;-117.188;2023-05-15T11:28:40;99599.50;;;15.73;100.00
37848;BME280;23688;33.130;-117.188;2023-05-15T11:31:08;99590.84;;;15.77;100.00
37848;BME280;23688;33.130;-117.188;2023-05-15T11:33:37;99587.09;;;15.66;100.00
37848;BME280;23688;33.130;-117.188;2023-05-15T11:36:05;99604.91;;;15.81;100.00
37848;BME280;23688;33.130;-117.188;2023-05-15T11:38:37;99599.72;;;15.84;100.00
37848;BME280;23688;33.130;-117.188;2023-05-15T11:41:16;99595.19;;;15.75;100.00
37848;BME280;23688;33.130;-117.188;2023-05-15T11:43:42;99599.66;;;15.81;100.00
37848;BME280;23688;33.130;-117.188;2023-05-15T11:46:10;99602.41;;;15.86;100.00
37848;BME280;23688;33.130;-117.188;2023-05-15T11:48:43;99593.72;;;15.90;100.00
37848;BME280;23688;33.130;-117.188;2023-05-15T11:53:53;99576.78;;;15.72;100.00
37848;BME280;23688;33.130;-117.188;2023-05-15T11:56:21;99595.81;;;15.67;100.00
37848;BME280;23688;33.130;-117.188;2023-05-15T11:58:53;99590.47;;;15.62;100.00
37848;BME280;23688;33.130;-117.188;2023-05-15T12:01:20;99586.03;;;15.58;100.00
37848;BME280;23688;33.130;-117.188;2023-05-15T12:03:47;99587.97;;;15.67;100.00
37848;BME280;23688;33.130;-117.188;2023-05-15T12:06:15;99593.41;;;15.74;100.00
37848;BME280;23688;33.130;-117.188;2023-05-15T12:08:41;99592.56;;;15.75;100.00
37848;BME280;23688;33.130;-117.188;2023-05-15T12:11:09;99595.31;;;15.81;100.00
37848;BME280;23688;33.130;-117.188;2023-05-15T12:13:36;99603.72;;;15.68;100.00
37848;BME280;23688;33.130;-117.188;2023-05-15T12:16:03;99604.75;;;15.73;100.00
37848;BME280;23688;33.130;-117.188;2023-05-15T12:18:30;99611.31;;;15.56;100.00
37848;BME280;23688;33.130;-117.188;2023-05-15T12:20:57;99609.56;;;15.58;100.00
37848;BME280;23688;33.130;-117.188;2023-05-15T12:23:25;99616.59;;;15.59;100.00
37848;BME280;23688;33.130;-117.188;2023-05-15T12:25:54;99614.34;;;15.74;100.00
37848;BME280;23688;33.130;-117.188;2023-05-15T12:28:23;99606.38;;;15.70;100.00
37848;BME280;23688;33.130;-117.188;2023-05-15T12:30:50;99603.69;;;15.67;100.00
37848;BME280;23688;33.130;-117.188;2023-05-15T12:33:17;99593.47;;;15.39;100.00
37848;BME280;23688;33.130;-117.188;2023-05-15T12:35:53;99593.63;;;15.47;100.00
37848;BME280;23688;33.130;-117.188;2023-05-15T12:38:21;99606.06;;;15.57;100.00
37848;BME280;23688;33.130;-117.188;2023-05-15T12:40:51;99609.56;;;15.58;100.00
37848;BME280;23688;33.130;-117.188;2023-05-15T12:43:25;99596.03;;;15.38;100.00
37848;BME280;23688;33.130;-117.188;2023-05-15T12:45:55;99608.47;;;15.48;100.00
37848;BME280;23688;33.130;-117.188;2023-05-15T12:48:22;99611.91;;;15.46;100.00
37848;BME280;23688;33.130;-117.188;2023-05-15T12:50:48;99611.19;;;15.51;100.00
37848;BME280;23688;33.130;-117.188;2023-05-15T12:53:15;99611.06;;;15.47;100.00
37848;BME280;23688;33.130;-117.188;2023-05-15T12:55:44;99623.75;;;15.66;100.00
37848;BME280;23688;33.130;-117.188;2023-05-15T12:58:12;99628.31;;;15.75;100.00